sensor_id;sensor_type;location;lat;lon;timestamp;temperature;humidity
53274;DHT22;39163;52.696;6.758;2024-02-23T00:00:55;5.50;99.90
53274;DHT22;39163;52.696;6.758;2024-02-23T00:03:22;5.50;99.90
53274;DHT22;39163;52.696;6.758;2024-02-23T00:05:49;5.40;99.90
53274;DHT22;39163;52.696;6.758;2024-02-23T00:08:16;5.40;99.90
53274;DHT22;39163;52.696;6.758;2024-02-23T00:10:43;5.40;99.90
53274;DHT22;39163;52.696;6.758;2024-02-23T00:13:10;5.30;99.90
53274;DHT22;39163;52.696;6.758;2024-02-23T00:15:38;5.30;99.90
53274;DHT22;39163;52.696;6.758;2024-02-23T00:18:05;5.20;99.90
53274;DHT22;39163;52.696;6.758;2024-02-23T00:20:32;5.20;99.90
53274;DHT22;39163;52.696;6.758;2024-02-23T00:22:59;5.20;99.90
53274;DHT22;39163;52.696;6.758;2024-02-23T00:25:26;5.20;99.90
53274;DHT22;39163;52.696;6.758;2024-02-23T00:27:54;5.20;99.90
53274;DHT22;39163;52.696;6.758;2024-02-23T00:30:21;5.10;99.90
53274;DHT22;39163;52.696;6.758;2024-02-23T00:32:48;5.10;99.90
53274;DHT22;39163;52.696;6.758;2024-02-23T00:35:15;5.00;99.90
53274;DHT22;39163;52.696;6.758;2024-02-23T00:37:42;4.90;99.90
53274;DHT22;39163;52.696;6.758;2024-02-23T00:40:10;4.80;99.90
53274;DHT22;39163;52.696;6.758;2024-02-23T00:42:37;4.80;99.90
53274;DHT22;39163;52.696;6.758;2024-02-23T00:45:06;4.80;99.90
53274;DHT22;39163;52.696;6.758;2024-02-23T00:47:34;4.70;99.90
53274;DHT22;39163;52.696;6.758;2024-02-23T00:50:02;4.70;99.90
53274;DHT22;39163;52.696;6.758;2024-02-23T00:52:29;4.70;99.90
53274;DHT22;39163;52.696;6.758;2024-02-23T00:54:58;4.60;99.90
53274;DHT22;39163;52.696;6.758;2024-02-23T00:57:25;4.60;99.90
53274;DHT22;39163;52.696;6.758;2024-02-23T00:59:55;4.50;99.90
53274;DHT22;39163;52.696;6.758;2024-02-23T01:02:24;4.40;99.90
53274;DHT22;39163;52.696;6.758;2024-02-23T01:04:51;4.40;99.90
53274;DHT22;39163;52.696;6.758;2024-02-23T01:07:22;4.40;99.90
53274;DHT22;39163;52.696;6.758;2024-02-23T01:09:49;4.30;99.90
53274;DHT22;39163;52.696;6.758;2024-02-23T01:12:16;4.40;99.90
53274;DHT22;39163;52.696;6.758;2024-02-23T01:14:43;4.40;99.90
53274;DHT22;39163;52.696;6.758;2024-02-23T01:17:10;4.30;99.90
53274;DHT22;39163;52.696;6.758;2024-02-23T01:19:38;4.30;99.90
53274;DHT22;39163;52.696;6.758;2024-02-23T01:22:05;4.30;99.90
53274;DHT22;39163;52.696;6.758;2024-02-23T01:24:32;4.30;99.90
53274;DHT22;39163;52.696;6.758;2024-02-23T01:26:59;4.30;99.90
53274;DHT22;39163;52.696;6.758;2024-02-23T01:29:26;4.30;99.90
53274;DHT22;39163;52.696;6.758;2024-02-23T01:31:53;4.40;99.90
53274;DHT22;39163;52.696;6.758;2024-02-23T01:34:20;4.30;99.90
53274;DHT22;39163;52.696;6.758;2024-02-23T01:36:49;4.40;99.90
53274;DHT22;39163;52.696;6.758;2024-02-23T01:39:16;4.40;99.90
53274;DHT22;39163;52.696;6.758;2024-02-23T01:41:43;4.50;99.90
53274;DHT22;39163;52.696;6.758;2024-02-23T01:44:10;4.50;99.90
53274;DHT22;39163;52.696;6.758;2024-02-23T01:46:37;4.50;99.90
53274;DHT22;39163;52.696;6.758;2024-02-23T01:49:06;4.60;99.90
53274;DHT22;39163;52.696;6.758;2024-02-23T01:51:33;4.60;99.90
53274;DHT22;39163;52.696;6.758;2024-02-23T01:54:02;4.60;99.90
53274;DHT22;39163;52.696;6.758;2024-02-23T01:56:30;4.70;99.90
53274;DHT22;39163;52.696;6.758;2024-02-23T01:58:58;4.70;99.90
53274;DHT22;39163;52.696;6.758;2024-02-23T02:01:25;4.70;99.90
53274;DHT22;39163;52.696;6.758;2024-02-23T02:03:52;4.80;99.90
53274;DHT22;39163;52.696;6.758;2024-02-23T02:06:19;4.80;99.90
53274;DHT22;39163;52.696;6.758;2024-02-23T02:08:46;4.90;99.90
53274;DHT22;39163;52.696;6.758;2024-02-23T02:11:14;4.90;99.90
53274;DHT22;39163;52.696;6.758;2024-02-23T02:13:41;4.90;99.90
53274;DHT22;39163;52.696;6.758;2024-02-23T02:16:09;4.90;99.90
53274;DHT22;39163;52.696;6.758;2024-02-23T02:18:36;5.00;99.90
53274;DHT22;39163;52.696;6.758;2024-02-23T02:21:04;5.00;99.90
53274;DHT22;39163;52.696;6.758;2024-02-23T02:23:30;5.00;99.90
53274;DHT22;39163;52.696;6.758;2024-02-23T02:25:58;5.00;99.90
53274;DHT22;39163;52.696;6.758;2024-02-23T02:28:26;5.00;99.90
53274;DHT22;39163;52.696;6.758;2024-02-23T02:30:53;5.00;99.90
53274;DHT22;39163;52.696;6.758;2024-02-23T02:33:20;5.10;99.90
53274;DHT22;39163;52.696;6.758;2024-02-23T02:35:47;5.10;99.90
53274;DHT22;39163;52.696;6.758;2024-02-23T02:38:15;5.10;99.90
53274;DHT22;39163;52.696;6.758;2024-02-23T02:40:42;5.10;99.90
53274;DHT22;39163;52.696;6.758;2024-02-23T02:43:09;5.10;99.90
53274;DHT22;39163;52.696;6.758;2024-02-23T02:45:37;5.10;99.90
53274;DHT22;39163;52.696;6.758;2024-02-23T02:48:05;5.10;99.90
53274;DHT22;39163;52.696;6.758;2024-02-23T02:50:32;5.10;99.90
53274;DHT22;39163;52.696;6.758;2024-02-23T02:52:59;5.10;99.90
53274;DHT22;39163;52.696;6.758;2024-02-23T02:55:26;5.10;99.90
53274;DHT22;39163;52.696;6.758;2024-02-23T02:57:53;5.10;99.90
53274;DHT22;39163;52.696;6.758;2024-02-23T03:00:19;5.00;99.90
53274;DHT22;39163;52.696;6.758;2024-02-23T03:02:48;4.90;99.90
53274;DHT22;39163;52.696;6.758;2024-02-23T03:05:15;4.80;99.90
53274;DHT22;39163;52.696;6.758;2024-02-23T03:07:42;4.70;99.90
53274;DHT22;39163;52.696;6.758;2024-02-23T03:10:09;4.70;99.90
53274;DHT22;39163;52.696;6.758;2024-02-23T03:12:36;4.70;99.90
53274;DHT22;39163;52.696;6.758;2024-02-23T03:15:04;4.70;99.90
53274;DHT22;39163;52.696;6.758;2024-02-23T03:17:32;4.60;99.90
53274;DHT22;39163;52.696;6.758;2024-02-23T03:20:01;4.70;99.90
53274;DHT22;39163;52.696;6.758;2024-02-23T03:22:30;4.70;99.90
53274;DHT22;39163;52.696;6.758;2024-02-23T03:24:57;4.70;99.90
53274;DHT22;39163;52.696;6.758;2024-02-23T03:27:28;4.70;99.90
53274;DHT22;39163;52.696;6.758;2024-02-23T03:29:55;4.70;99.90
53274;DHT22;39163;52.696;6.758;2024-02-23T03:32:22;4.70;99.90
53274;DHT22;39163;52.696;6.758;2024-02-23T03:34:49;4.70;99.90
53274;DHT22;39163;52.696;6.758;2024-02-23T03:37:17;4.70;99.90
53274;DHT22;39163;52.696;6.758;2024-02-23T03:39:44;4.70;99.90
53274;DHT22;39163;52.696;6.758;2024-02-23T03:42:12;4.70;99.90
53274;DHT22;39163;52.696;6.758;2024-02-23T03:44:39;4.70;99.90
53274;DHT22;39163;52.696;6.758;2024-02-23T03:47:07;4.70;99.90
53274;DHT22;39163;52.696;6.758;2024-02-23T03:49:34;4.60;99.90
53274;DHT22;39163;52.696;6.758;2024-02-23T03:52:01;4.60;99.90
53274;DHT22;39163;52.696;6.758;2024-02-23T03:54:29;4.60;99.90
53274;DHT22;39163;52.696;6.758;2024-02-23T03:56:56;4.60;99.90
53274;DHT22;39163;52.696;6.758;2024-02-23T03:59:23;4.60;99.90
53274;DHT22;39163;52.696;6.758;2024-02-23T04:01:50;4.60;99.90
53274;DHT22;39163;52.696;6.758;2024-02-23T04:04:17;4.60;99.90
53274;DHT22;39163;52.696;6.758;2024-02-23T04:06:44;4.50;99.90
53274;DHT22;39163;52.696;6.758;2024-02-23T04:09:11;4.60;99.90
53274;DHT22;39163;52.696;6.758;2024-02-23T04:11:39;4.60;99.90
53274;DHT22;39163;52.696;6.758;2024-02-23T04:14:06;4.60;99.90
53274;DHT22;39163;52.696;6.758;2024-02-23T04:16:33;4.70;99.90
53274;DHT22;39163;52.696;6.758;2024-02-23T04:19:00;4.70;99.90
53274;DHT22;39163;52.696;6.758;2024-02-23T04:21:27;4.60;99.90
53274;DHT22;39163;52.696;6.758;2024-02-23T04:23:54;4.60;99.90
53274;DHT22;39163;52.696;6.758;2024-02-23T04:26:21;4.60;99.90
53274;DHT22;39163;52.696;6.758;2024-02-23T04:28:49;4.50;99.90
53274;DHT22;39163;52.696;6.758;2024-02-23T04:31:16;4.50;99.90
53274;DHT22;39163;52.696;6.758;2024-02-23T04:33:43;4.50;99.90
53274;DHT22;39163;52.696;6.758;2024-02-23T04:36:10;4.50;99.90
53274;DHT22;39163;52.696;6.758;2024-02-23T04:38:37;4.50;99.90
53274;DHT22;39163;52.696;6.758;2024-02-23T04:41:05;4.50;99.90
53274;DHT22;39163;52.696;6.758;2024-02-23T04:43:33;4.60;99.90
53274;DHT22;39163;52.696;6.758;2024-02-23T04:46:02;4.60;99.90
53274;DHT22;39163;52.696;6.758;2024-02-23T04:48:29;4.60;99.90
53274;DHT22;39163;52.696;6.758;2024-02-23T04:50:56;4.70;99.90
53274;DHT22;39163;52.696;6.758;2024-02-23T04:53:23;4.80;99.90
53274;DHT22;39163;52.696;6.758;2024-02-23T04:55:50;4.80;99.90
53274;DHT22;39163;52.696;6.758;2024-02-23T04:58:17;4.80;99.90
53274;DHT22;39163;52.696;6.758;2024-02-23T05:00:46;4.90;99.90
53274;DHT22;39163;52.696;6.758;2024-02-23T05:03:14;4.90;99.90
53274;DHT22;39163;52.696;6.758;2024-02-23T05:05:41;4.90;99.90
53274;DHT22;39163;52.696;6.758;2024-02-23T05:08:08;4.90;99.90
53274;DHT22;39163;52.696;6.758;2024-02-23T05:10:36;4.90;99.90
53274;DHT22;39163;52.696;6.758;2024-02-23T05:13:03;4.90;99.90
53274;DHT22;39163;52.696;6.758;2024-02-23T05:15:30;4.80;99.90
53274;DHT22;39163;52.696;6.758;2024-02-23T05:17:57;4.90;99.90
53274;DHT22;39163;52.696;6.758;2024-02-23T05:20:26;4.90;99.90
53274;DHT22;39163;52.696;6.758;2024-02-23T05:22:53;4.90;99.90
53274;DHT22;39163;52.696;6.758;2024-02-23T05:25:19;5.00;99.90
53274;DHT22;39163;52.696;6.758;2024-02-23T05:27:46;4.90;99.90
53274;DHT22;39163;52.696;6.758;2024-02-23T05:30:13;5.00;99.90
53274;DHT22;39163;52.696;6.758;2024-02-23T05:32:40;5.00;99.90
53274;DHT22;39163;52.696;6.758;2024-02-23T05:35:07;5.00;99.90
53274;DHT22;39163;52.696;6.758;2024-02-23T05:37:36;5.00;99.90
53274;DHT22;39163;52.696;6.758;2024-02-23T05:40:04;5.00;99.90
53274;DHT22;39163;52.696;6.758;2024-02-23T05:42:36;4.90;99.90
53274;DHT22;39163;52.696;6.758;2024-02-23T05:45:03;5.00;99.90
53274;DHT22;39163;52.696;6.758;2024-02-23T05:47:34;4.90;99.90
53274;DHT22;39163;52.696;6.758;2024-02-23T05:50:01;4.90;99.90
53274;DHT22;39163;52.696;6.758;2024-02-23T05:52:28;4.80;99.90
53274;DHT22;39163;52.696;6.758;2024-02-23T05:54:57;4.80;99.90
53274;DHT22;39163;52.696;6.758;2024-02-23T05:57:25;4.80;99.90
53274;DHT22;39163;52.696;6.758;2024-02-23T05:59:52;4.90;99.90
53274;DHT22;39163;52.696;6.758;2024-02-23T06:02:20;4.90;99.90
53274;DHT22;39163;52.696;6.758;2024-02-23T06:04:47;4.90;99.90
53274;DHT22;39163;52.696;6.758;2024-02-23T06:07:14;4.90;99.90
53274;DHT22;39163;52.696;6.758;2024-02-23T06:09:42;4.90;99.90
53274;DHT22;39163;52.696;6.758;2024-02-23T06:12:10;4.90;99.90
53274;DHT22;39163;52.696;6.758;2024-02-23T06:14:38;4.90;99.90
53274;DHT22;39163;52.696;6.758;2024-02-23T06:17:05;5.00;99.90
53274;DHT22;39163;52.696;6.758;2024-02-23T06:19:34;5.00;99.90
53274;DHT22;39163;52.696;6.758;2024-02-23T06:22:00;5.00;99.90
53274;DHT22;39163;52.696;6.758;2024-02-23T06:24:28;5.00;99.90
53274;DHT22;39163;52.696;6.758;2024-02-23T06:26:55;5.00;99.90
53274;DHT22;39163;52.696;6.758;2024-02-23T06:29:25;5.00;99.90
53274;DHT22;39163;52.696;6.758;2024-02-23T06:31:51;5.00;99.90
53274;DHT22;39163;52.696;6.758;2024-02-23T06:34:19;5.00;99.90
53274;DHT22;39163;52.696;6.758;2024-02-23T06:36:46;5.00;99.90
53274;DHT22;39163;52.696;6.758;2024-02-23T06:39:13;5.10;99.90
53274;DHT22;39163;52.696;6.758;2024-02-23T06:41:43;5.10;99.90
53274;DHT22;39163;52.696;6.758;2024-02-23T06:44:10;5.10;99.90
53274;DHT22;39163;52.696;6.758;2024-02-23T06:46:38;5.10;99.90
53274;DHT22;39163;52.696;6.758;2024-02-23T06:49:07;5.20;99.90
53274;DHT22;39163;52.696;6.758;2024-02-23T06:51:34;5.20;99.90
53274;DHT22;39163;52.696;6.758;2024-02-23T06:54:01;5.30;99.90
53274;DHT22;39163;52.696;6.758;2024-02-23T06:56:29;5.30;99.90
53274;DHT22;39163;52.696;6.758;2024-02-23T06:58:56;5.30;99.90
53274;DHT22;39163;52.696;6.758;2024-02-23T07:01:23;5.30;99.90
53274;DHT22;39163;52.696;6.758;2024-02-23T07:03:51;5.30;99.90
53274;DHT22;39163;52.696;6.758;2024-02-23T07:06:18;5.30;99.90
53274;DHT22;39163;52.696;6.758;2024-02-23T07:08:45;5.30;99.90
53274;DHT22;39163;52.696;6.758;2024-02-23T07:11:12;5.40;99.90
53274;DHT22;39163;52.696;6.758;2024-02-23T07:13:42;5.40;99.90
53274;DHT22;39163;52.696;6.758;2024-02-23T07:16:09;5.40;99.90
53274;DHT22;39163;52.696;6.758;2024-02-23T07:18:36;5.50;99.90
53274;DHT22;39163;52.696;6.758;2024-02-23T07:21:04;5.50;99.90
53274;DHT22;39163;52.696;6.758;2024-02-23T07:23:31;5.50;99.90
53274;DHT22;39163;52.696;6.758;2024-02-23T07:25:58;5.50;99.90
53274;DHT22;39163;52.696;6.758;2024-02-23T07:28:25;5.50;99.90
53274;DHT22;39163;52.696;6.758;2024-02-23T07:30:52;5.50;99.90
53274;DHT22;39163;52.696;6.758;2024-02-23T07:33:19;5.50;99.90
53274;DHT22;39163;52.696;6.758;2024-02-23T07:35:46;5.60;99.90
53274;DHT22;39163;52.696;6.758;2024-02-23T07:38:14;5.60;99.90
53274;DHT22;39163;52.696;6.758;2024-02-23T07:40:43;5.60;99.90
53274;DHT22;39163;52.696;6.758;2024-02-23T07:43:10;5.60;99.90
53274;DHT22;39163;52.696;6.758;2024-02-23T07:45:38;5.60;99.90
53274;DHT22;39163;52.696;6.758;2024-02-23T07:48:05;5.60;99.90
53274;DHT22;39163;52.696;6.758;2024-02-23T07:50:34;5.80;99.90
53274;DHT22;39163;52.696;6.758;2024-02-23T07:53:01;5.80;99.90
53274;DHT22;39163;52.696;6.758;2024-02-23T07:55:31;5.90;99.90
53274;DHT22;39163;52.696;6.758;2024-02-23T07:57:58;5.90;99.90
53274;DHT22;39163;52.696;6.758;2024-02-23T08:00:27;5.90;99.90
53274;DHT22;39163;52.696;6.758;2024-02-23T08:02:54;5.90;99.90
53274;DHT22;39163;52.696;6.758;2024-02-23T08:05:22;6.00;99.90
53274;DHT22;39163;52.696;6.758;2024-02-23T08:07:49;6.10;99.90
53274;DHT22;39163;52.696;6.758;2024-02-23T08:10:16;6.10;99.90
53274;DHT22;39163;52.696;6.758;2024-02-23T08:12:45;6.10;99.90
53274;DHT22;39163;52.696;6.758;2024-02-23T08:15:12;6.20;99.90
53274;DHT22;39163;52.696;6.758;2024-02-23T08:17:40;6.30;99.90
53274;DHT22;39163;52.696;6.758;2024-02-23T08:20:07;6.30;99.90
53274;DHT22;39163;52.696;6.758;2024-02-23T08:22:34;6.40;99.90
53274;DHT22;39163;52.696;6.758;2024-02-23T08:25:01;6.50;99.90
53274;DHT22;39163;52.696;6.758;2024-02-23T08:27:28;6.60;99.90
53274;DHT22;39163;52.696;6.758;2024-02-23T08:29:56;6.70;99.90
53274;DHT22;39163;52.696;6.758;2024-02-23T08:32:23;6.90;99.90
53274;DHT22;39163;52.696;6.758;2024-02-23T08:34:50;6.90;99.90
53274;DHT22;39163;52.696;6.758;2024-02-23T08:37:18;7.00;99.90
53274;DHT22;39163;52.696;6.758;2024-02-23T08:39:45;7.20;99.90
53274;DHT22;39163;52.696;6.758;2024-02-23T08:42:12;7.30;99.90
53274;DHT22;39163;52.696;6.758;2024-02-23T08:44:39;7.30;99.90
53274;DHT22;39163;52.696;6.758;2024-02-23T08:47:08;7.30;99.90
53274;DHT22;39163;52.696;6.758;2024-02-23T08:49:35;7.20;99.90
53274;DHT22;39163;52.696;6.758;2024-02-23T08:52:02;7.20;99.90
53274;DHT22;39163;52.696;6.758;2024-02-23T08:54:29;7.30;99.90
53274;DHT22;39163;52.696;6.758;2024-02-23T08:56:56;7.40;99.90
53274;DHT22;39163;52.696;6.758;2024-02-23T08:59:24;7.40;99.90
53274;DHT22;39163;52.696;6.758;2024-02-23T09:01:51;7.50;99.90
53274;DHT22;39163;52.696;6.758;2024-02-23T09:04:19;7.60;99.90
53274;DHT22;39163;52.696;6.758;2024-02-23T09:06:46;7.60;99.90
53274;DHT22;39163;52.696;6.758;2024-02-23T09:09:14;7.50;99.90
53274;DHT22;39163;52.696;6.758;2024-02-23T09:11:42;7.60;99.90
53274;DHT22;39163;52.696;6.758;2024-02-23T09:14:09;7.60;99.90
53274;DHT22;39163;52.696;6.758;2024-02-23T09:16:36;7.70;99.90
53274;DHT22;39163;52.696;6.758;2024-02-23T09:19:03;7.90;99.90
53274;DHT22;39163;52.696;6.758;2024-02-23T09:21:31;8.00;99.90
53274;DHT22;39163;52.696;6.758;2024-02-23T09:23:58;8.10;99.90
53274;DHT22;39163;52.696;6.758;2024-02-23T09:26:25;8.10;99.90
53274;DHT22;39163;52.696;6.758;2024-02-23T09:28:52;8.10;99.90
53274;DHT22;39163;52.696;6.758;2024-02-23T09:31:19;7.90;99.90
53274;DHT22;39163;52.696;6.758;2024-02-23T09:33:46;7.90;99.90
53274;DHT22;39163;52.696;6.758;2024-02-23T09:36:15;7.80;99.90
53274;DHT22;39163;52.696;6.758;2024-02-23T09:38:43;7.80;99.90
53274;DHT22;39163;52.696;6.758;2024-02-23T09:41:17;7.80;99.90
53274;DHT22;39163;52.696;6.758;2024-02-23T09:43:46;7.90;99.90
53274;DHT22;39163;52.696;6.758;2024-02-23T09:46:14;7.90;99.90
53274;DHT22;39163;52.696;6.758;2024-02-23T09:48:41;8.00;99.90
53274;DHT22;39163;52.696;6.758;2024-02-23T09:51:10;8.10;99.90
53274;DHT22;39163;52.696;6.758;2024-02-23T09:53:38;8.30;99.90
53274;DHT22;39163;52.696;6.758;2024-02-23T09:56:08;8.40;99.90
53274;DHT22;39163;52.696;6.758;2024-02-23T09:58:36;8.30;99.90
53274;DHT22;39163;52.696;6.758;2024-02-23T10:01:03;8.20;99.90
53274;DHT22;39163;52.696;6.758;2024-02-23T10:03:31;8.10;99.90
53274;DHT22;39163;52.696;6.758;2024-02-23T10:05:58;8.10;99.90
53274;DHT22;39163;52.696;6.758;2024-02-23T10:08:27;8.00;99.90
53274;DHT22;39163;52.696;6.758;2024-02-23T10:10:54;7.90;99.90
53274;DHT22;39163;52.696;6.758;2024-02-23T10:13:24;7.90;99.90
53274;DHT22;39163;52.696;6.758;2024-02-23T10:15:51;7.90;99.90
53274;DHT22;39163;52.696;6.758;2024-02-23T10:18:18;7.80;99.90
53274;DHT22;39163;52.696;6.758;2024-02-23T10:20:45;7.80;99.90
53274;DHT22;39163;52.696;6.758;2024-02-23T10:23:13;7.80;99.90
53274;DHT22;39163;52.696;6.758;2024-02-23T10:25:40;7.80;99.90
53274;DHT22;39163;52.696;6.758;2024-02-23T10:28:07;7.80;99.90
53274;DHT22;39163;52.696;6.758;2024-02-23T10:30:37;7.70;99.90
53274;DHT22;39163;52.696;6.758;2024-02-23T10:33:05;7.70;99.90
53274;DHT22;39163;52.696;6.758;2024-02-23T10:35:32;7.70;99.90
53274;DHT22;39163;52.696;6.758;2024-02-23T10:38:05;7.70;99.90
53274;DHT22;39163;52.696;6.758;2024-02-23T10:40:32;7.60;99.90
53274;DHT22;39163;52.696;6.758;2024-02-23T10:43:03;7.70;99.90
53274;DHT22;39163;52.696;6.758;2024-02-23T10:45:33;7.60;99.90
53274;DHT22;39163;52.696;6.758;2024-02-23T10:48:04;7.70;99.90
53274;DHT22;39163;52.696;6.758;2024-02-23T10:50:31;7.60;99.90
53274;DHT22;39163;52.696;6.758;2024-02-23T10:52:59;7.60;99.90
53274;DHT22;39163;52.696;6.758;2024-02-23T10:55:28;7.60;99.90
53274;DHT22;39163;52.696;6.758;2024-02-23T10:57:56;7.60;99.90
53274;DHT22;39163;52.696;6.758;2024-02-23T11:00:25;7.60;99.90
53274;DHT22;39163;52.696;6.758;2024-02-23T11:02:53;7.70;99.90
53274;DHT22;39163;52.696;6.758;2024-02-23T11:05:23;7.70;99.90
53274;DHT22;39163;52.696;6.758;2024-02-23T11:07:50;7.70;99.90
53274;DHT22;39163;52.696;6.758;2024-02-23T11:10:18;7.70;99.90
53274;DHT22;39163;52.696;6.758;2024-02-23T11:12:57;7.70;99.90
53274;DHT22;39163;52.696;6.758;2024-02-23T11:15:30;7.80;99.90
53274;DHT22;39163;52.696;6.758;2024-02-23T11:18:00;7.80;99.90
53274;DHT22;39163;52.696;6.758;2024-02-23T11:20:37;7.80;99.90
53274;DHT22;39163;52.696;6.758;2024-02-23T11:23:13;7.80;99.90
53274;DHT22;39163;52.696;6.758;2024-02-23T11:25:41;7.70;99.90
53274;DHT22;39163;52.696;6.758;2024-02-23T11:28:07;7.70;99.90
53274;DHT22;39163;52.696;6.758;2024-02-23T11:30:34;7.60;99.90
53274;DHT22;39163;52.696;6.758;2024-02-23T11:33:01;7.60;99.90
53274;DHT22;39163;52.696;6.758;2024-02-23T11:35:28;7.60;99.90
53274;DHT22;39163;52.696;6.758;2024-02-23T11:37:57;7.50;99.90
53274;DHT22;39163;52.696;6.758;2024-02-23T11:40:26;7.40;99.90
53274;DHT22;39163;52.696;6.758;2024-02-23T11:42:54;7.40;99.90
53274;DHT22;39163;52.696;6.758;2024-02-23T11:45:21;7.30;99.90
53274;DHT22;39163;52.696;6.758;2024-02-23T11:47:48;7.10;99.90
53274;DHT22;39163;52.696;6.758;2024-02-23T11:50:15;7.00;99.90
53274;DHT22;39163;52.696;6.758;2024-02-23T11:52:45;7.00;99.90
53274;DHT22;39163;52.696;6.758;2024-02-23T11:55:18;7.00;99.90
53274;DHT22;39163;52.696;6.758;2024-02-23T11:57:48;7.00;99.90
53274;DHT22;39163;52.696;6.758;2024-02-23T12:00:15;7.00;99.90
53274;DHT22;39163;52.696;6.758;2024-02-23T12:02:43;7.00;99.90
53274;DHT22;39163;52.696;6.758;2024-02-23T12:05:11;7.00;99.90
53274;DHT22;39163;52.696;6.758;2024-02-23T12:07:38;6.90;99.90
53274;DHT22;39163;52.696;6.758;2024-02-23T12:10:05;6.90;99.90
53274;DHT22;39163;52.696;6.758;2024-02-23T12:12:34;6.90;99.90
53274;DHT22;39163;52.696;6.758;2024-02-23T12:15:02;6.90;99.90
53274;DHT22;39163;52.696;6.758;2024-02-23T12:17:29;6.90;99.90
53274;DHT22;39163;52.696;6.758;2024-02-23T12:19:58;6.90;99.90
53274;DHT22;39163;52.696;6.758;2024-02-23T12:22:25;6.80;99.90
53274;DHT22;39163;52.696;6.758;2024-02-23T12:24:52;6.80;99.90
53274;DHT22;39163;52.696;6.758;2024-02-23T12:27:19;6.80;99.90
53274;DHT22;39163;52.696;6.758;2024-02-23T12:29:52;6.70;99.90
53274;DHT22;39163;52.696;6.758;2024-02-23T12:32:20;6.70;99.90
53274;DHT22;39163;52.696;6.758;2024-02-23T12:34:47;6.70;99.90
53274;DHT22;39163;52.696;6.758;2024-02-23T12:37:14;6.70;99.90
53274;DHT22;39163;52.696;6.758;2024-02-23T12:39:42;6.70;99.90
53274;DHT22;39163;52.696;6.758;2024-02-23T12:42:09;6.70;99.90
53274;DHT22;39163;52.696;6.758;2024-02-23T12:44:36;6.70;99.90
53274;DHT22;39163;52.696;6.758;2024-02-23T12:47:04;6.70;99.90
53274;DHT22;39163;52.696;6.758;2024-02-23T12:49:31;6.70;99.90
53274;DHT22;39163;52.696;6.758;2024-02-23T12:51:58;6.80;99.90
53274;DHT22;39163;52.696;6.758;2024-02-23T12:54:25;6.80;99.90
53274;DHT22;39163;52.696;6.758;2024-02-23T12:56:52;6.90;99.90
53274;DHT22;39163;52.696;6.758;2024-02-23T12:59:19;6.90;99.90
53274;DHT22;39163;52.696;6.758;2024-02-23T13:01:46;7.00;99.90
53274;DHT22;39163;52.696;6.758;2024-02-23T13:04:14;7.00;99.90
53274;DHT22;39163;52.696;6.758;2024-02-23T13:06:41;7.10;99.90
53274;DHT22;39163;52.696;6.758;2024-02-23T13:09:08;7.10;99.90
53274;DHT22;39163;52.696;6.758;2024-02-23T13:11:38;7.10;99.90
53274;DHT22;39163;52.696;6.758;2024-02-23T13:14:05;7.10;99.90
53274;DHT22;39163;52.696;6.758;2024-02-23T13:16:32;7.10;99.90
53274;DHT22;39163;52.696;6.758;2024-02-23T13:18:59;7.10;99.90
53274;DHT22;39163;52.696;6.758;2024-02-23T13:21:27;7.20;99.90
53274;DHT22;39163;52.696;6.758;2024-02-23T13:23:54;7.20;99.90
53274;DHT22;39163;52.696;6.758;2024-02-23T13:26:21;7.20;99.90
53274;DHT22;39163;52.696;6.758;2024-02-23T13:28:48;7.20;99.90
53274;DHT22;39163;52.696;6.758;2024-02-23T13:31:15;7.20;99.90
53274;DHT22;39163;52.696;6.758;2024-02-23T13:33:42;7.20;99.90
53274;DHT22;39163;52.696;6.758;2024-02-23T13:36:10;7.20;99.90
53274;DHT22;39163;52.696;6.758;2024-02-23T13:38:39;7.20;99.90
53274;DHT22;39163;52.696;6.758;2024-02-23T13:41:07;7.20;99.90
53274;DHT22;39163;52.696;6.758;2024-02-23T13:43:34;7.20;99.90
53274;DHT22;39163;52.696;6.758;2024-02-23T13:46:01;7.20;99.90
53274;DHT22;39163;52.696;6.758;2024-02-23T13:48:29;7.20;99.90
53274;DHT22;39163;52.696;6.758;2024-02-23T13:50:57;7.30;99.90
53274;DHT22;39163;52.696;6.758;2024-02-23T13:53:28;7.30;99.90
53274;DHT22;39163;52.696;6.758;2024-02-23T13:55:57;7.40;99.90
53274;DHT22;39163;52.696;6.758;2024-02-23T13:58:24;7.40;99.90
53274;DHT22;39163;52.696;6.758;2024-02-23T14:00:51;7.40;99.90
53274;DHT22;39163;52.696;6.758;2024-02-23T14:03:18;7.50;99.90
53274;DHT22;39163;52.696;6.758;2024-02-23T14:05:45;7.50;99.90
53274;DHT22;39163;52.696;6.758;2024-02-23T14:08:12;7.50;99.90
53274;DHT22;39163;52.696;6.758;2024-02-23T14:10:39;7.60;99.90
53274;DHT22;39163;52.696;6.758;2024-02-23T14:13:10;7.50;99.90
53274;DHT22;39163;52.696;6.758;2024-02-23T14:15:37;7.50;99.90
53274;DHT22;39163;52.696;6.758;2024-02-23T14:18:04;7.50;99.90
53274;DHT22;39163;52.696;6.758;2024-02-23T14:20:31;7.60;99.90
53274;DHT22;39163;52.696;6.758;2024-02-23T14:22:58;7.50;99.90
53274;DHT22;39163;52.696;6.758;2024-02-23T14:25:25;7.50;99.90
53274;DHT22;39163;52.696;6.758;2024-02-23T14:27:52;7.50;99.90
53274;DHT22;39163;52.696;6.758;2024-02-23T14:30:22;7.60;99.90
53274;DHT22;39163;52.696;6.758;2024-02-23T14:32:49;7.60;99.90
53274;DHT22;39163;52.696;6.758;2024-02-23T14:35:16;7.60;99.90
53274;DHT22;39163;52.696;6.758;2024-02-23T14:37:43;7.70;99.90
53274;DHT22;39163;52.696;6.758;2024-02-23T14:40:11;7.60;99.90
53274;DHT22;39163;52.696;6.758;2024-02-23T14:42:39;7.60;99.90
53274;DHT22;39163;52.696;6.758;2024-02-23T14:45:07;7.70;99.90
53274;DHT22;39163;52.696;6.758;2024-02-23T14:47:36;7.80;99.90
53274;DHT22;39163;52.696;6.758;2024-02-23T14:50:03;7.80;99.90
53274;DHT22;39163;52.696;6.758;2024-02-23T14:52:30;7.80;99.90
53274;DHT22;39163;52.696;6.758;2024-02-23T14:54:57;7.80;99.90
53274;DHT22;39163;52.696;6.758;2024-02-23T14:57:24;7.80;99.90
53274;DHT22;39163;52.696;6.758;2024-02-23T14:59:51;7.80;99.90
53274;DHT22;39163;52.696;6.758;2024-02-23T15:02:20;7.80;99.90
53274;DHT22;39163;52.696;6.758;2024-02-23T15:04:48;7.80;99.90
53274;DHT22;39163;52.696;6.758;2024-02-23T15:07:15;7.90;99.90
53274;DHT22;39163;52.696;6.758;2024-02-23T15:09:43;7.90;99.90
53274;DHT22;39163;52.696;6.758;2024-02-23T15:12:10;7.90;99.90
53274;DHT22;39163;52.696;6.758;2024-02-23T15:14:37;7.90;99.90
53274;DHT22;39163;52.696;6.758;2024-02-23T15:17:04;7.90;99.90
53274;DHT22;39163;52.696;6.758;2024-02-23T15:19:31;7.90;99.90
53274;DHT22;39163;52.696;6.758;2024-02-23T15:22:00;7.90;99.90
53274;DHT22;39163;52.696;6.758;2024-02-23T15:24:27;7.90;99.90
53274;DHT22;39163;52.696;6.758;2024-02-23T15:26:54;7.80;99.90
53274;DHT22;39163;52.696;6.758;2024-02-23T15:29:21;7.80;99.90
53274;DHT22;39163;52.696;6.758;2024-02-23T15:31:48;7.80;99.90
53274;DHT22;39163;52.696;6.758;2024-02-23T15:34:15;7.80;99.90
53274;DHT22;39163;52.696;6.758;2024-02-23T15:36:41;7.80;99.90
53274;DHT22;39163;52.696;6.758;2024-02-23T15:39:10;7.80;99.90
53274;DHT22;39163;52.696;6.758;2024-02-23T15:41:37;7.80;99.90
53274;DHT22;39163;52.696;6.758;2024-02-23T15:44:04;7.70;99.90
53274;DHT22;39163;52.696;6.758;2024-02-23T15:46:31;7.70;99.90